Terminal Aerodrome Forecast
Issued by NWS

Home | Current Version | Previous Version | Text Only | Print | Product List | Glossary On
Versions: 1 2 3 4 5 6 7 8 9 10 11 12 13 14 15 16 17 18 19 20 21
000
FTUS46 KMFR 161100
TAFOTH
TAF
KOTH 161120Z 1612/1712 14005KT P6SM SCT005 SCT250
     FM161500 VRB03KT P6SM SCT005 BKN250
     FM161900 25008KT P6SM SCT080 BKN250
     FM170200 VRB03KT P6SM SCT040 OVC080=

USA.gov is the U.S. government's official web portal to all federal, state and local government web resources and services.